Time;durP1;ratioP1;P1;durP2;ratioP2;P2;SDS_P1;SDS_P2;PMS_P1;PMS_P2;Temp;Humidity;BMP_temperature;BMP_pressure;BME280_temperature;BME280_humidity;BME280_pressure;Samples;Min_cycle;Max_cycle;Signal;HPM_P1;HPM_P2
2023/11/02 00:00:34;;;;;;;4.75;0.77;;;10.90;99.90;;;;;;5019614;28;20034;-83
2023/11/02 00:03:05;;;;;;;5.53;0.90;;;10.90;99.90;;;;;;5021511;28;20029;-83
2023/11/02 00:06:21;;;;;;;5.95;0.60;;;11.00;99.90;;;;;;5021547;28;20080;-83
2023/11/02 00:09:02;;;;;;;4.82;0.68;;;11.00;99.90;;;;;;5019355;28;20030;-82
2023/11/02 00:11:59;;;;;;;5.25;0.98;;;11.00;99.90;;;;;;5020962;28;20068;-82
2023/11/02 00:14:28;;;;;;;9.93;0.98;;;10.90;99.90;;;;;;5025066;28;20022;-82
2023/11/02 00:16:56;;;;;;;5.05;0.70;;;11.00;99.90;;;;;;5024229;28;20086;-82
2023/11/02 00:19:37;;;;;;;4.40;0.60;;;11.00;99.90;;;;;;5023895;28;20018;-82
2023/11/02 00:22:10;;;;;;;6.13;0.90;;;10.90;99.90;;;;;;5022621;28;20050;-82
2023/11/02 00:24:39;;;;;;;2.47;0.80;;;11.00;99.90;;;;;;5023453;28;20085;-82
2023/11/02 00:27:06;;;;;;;6.32;0.90;;;11.00;99.90;;;;;;5023424;28;20026;-82
2023/11/02 00:29:32;;;;;;;5.60;1.08;;;11.00;99.90;;;;;;5022645;28;20022;-82
2023/11/02 00:31:58;;;;;;;3.33;0.70;;;11.00;99.90;;;;;;5024906;28;20474;-81
2023/11/02 00:34:26;;;;;;;5.07;0.80;;;11.00;99.90;;;;;;5022345;28;20029;-81
2023/11/02 00:36:52;;;;;;;3.35;0.50;;;11.00;99.90;;;;;;5022831;28;20030;-81
2023/11/02 00:39:20;;;;;;;4.53;0.75;;;11.00;99.90;;;;;;5023062;28;20010;-81
2023/11/02 00:41:47;;;;;;;5.07;0.98;;;11.00;99.90;;;;;;5023062;28;20026;-83
2023/11/02 00:44:13;;;;;;;6.22;0.63;;;11.00;99.90;;;;;;5023119;28;20030;-82
2023/11/02 00:46:39;;;;;;;3.35;0.77;;;11.00;99.90;;;;;;5022121;28;20057;-82
2023/11/02 00:49:13;;;;;;;1.77;0.60;;;11.00;99.90;;;;;;5023654;28;20029;-83
2023/11/02 00:51:40;;;;;;;4.43;0.60;;;11.00;99.90;;;;;;5021601;28;20105;-83
2023/11/02 00:54:07;;;;;;;4.32;0.75;;;11.00;99.90;;;;;;5022945;28;20068;-82
2023/11/02 00:56:37;;;;;;;3.35;0.60;;;11.00;99.90;;;;;;5022499;28;20032;-82
2023/11/02 00:59:04;;;;;;;4.18;0.60;;;11.00;99.90;;;;;;5022438;28;20033;-83
2023/11/02 01:01:31;;;;;;;3.80;0.80;;;10.90;99.90;;;;;;5024501;28;20025;-82
2023/11/02 01:04:31;;;;;;;4.65;0.60;;;11.00;99.90;;;;;;5021388;28;20064;-82
2023/11/02 01:06:57;;;;;;;3.10;0.80;;;11.00;99.90;;;;;;5022572;28;20120;-81
2023/11/02 01:09:39;;;;;;;3.42;0.60;;;11.00;99.90;;;;;;5022134;28;20030;-82
2023/11/02 01:12:05;;;;;;;3.33;0.52;;;11.00;99.90;;;;;;5022175;28;20091;-83
2023/11/02 01:14:46;;;;;;;3.90;0.60;;;11.00;99.90;;;;;;5022349;28;20065;-83
2023/11/02 01:17:27;;;;;;;4.10;0.77;;;11.00;99.90;;;;;;5021658;28;20030;-83
2023/11/02 01:19:55;;;;;;;2.70;0.52;;;10.90;99.90;;;;;;5021888;28;20037;-83
2023/11/02 01:22:42;;;;;;;4.18;0.50;;;11.00;99.90;;;;;;5023276;28;20026;-83
2023/11/02 01:25:11;;;;;;;4.85;0.60;;;11.00;99.90;;;;;;5008415;28;20090;-82
2023/11/02 01:27:38;;;;;;;1.70;0.50;;;11.00;99.90;;;;;;5024587;28;20040;-83
2023/11/02 01:30:30;;;;;;;4.30;0.57;;;11.00;99.90;;;;;;5021510;28;20068;-84
2023/11/02 01:32:55;;;;;;;2.63;0.50;;;11.00;99.90;;;;;;4992440;28;20120;-83
2023/11/02 01:35:36;;;;;;;3.33;0.55;;;11.10;99.90;;;;;;5021675;28;20014;-83
2023/11/02 01:38:02;;;;;;;4.57;0.50;;;11.10;99.90;;;;;;5021223;28;20549;-83
2023/11/02 01:40:36;;;;;;;10.82;0.60;;;11.10;99.90;;;;;;5022530;28;20033;-83
2023/11/02 01:43:05;;;;;;;3.58;0.70;;;11.10;99.90;;;;;;5021400;28;20093;-83
2023/11/02 01:45:36;;;;;;;3.65;0.60;;;11.10;99.90;;;;;;5021584;28;20053;-84
2023/11/02 01:48:08;;;;;;;1.48;0.40;;;11.10;99.90;;;;;;5020898;28;20025;-83
2023/11/02 01:50:45;;;;;;;2.05;0.35;;;11.10;99.90;;;;;;5021486;28;20065;-83
2023/11/02 01:54:04;;;;;;;3.40;0.75;;;11.10;99.90;;;;;;5022385;28;20041;-82
2023/11/02 01:56:49;;;;;;;4.15;0.60;;;11.10;99.90;;;;;;4945409;29;20164;-82
2023/11/02 01:59:17;;;;;;;;;;;11.10;99.90;;;;;;4962368;29;20035;-82
2023/11/02 02:01:57;;;;;;;3.03;0.70;;;11.10;99.90;;;;;;4999078;28;19927;-83
2023/11/02 02:04:48;;;;;;;4.65;0.60;;;11.10;99.90;;;;;;5020674;28;20041;-82
2023/11/02 02:07:21;;;;;;;3.92;0.63;;;11.10;99.90;;;;;;5021808;28;20452;-82
2023/11/02 02:10:19;;;;;;;4.55;0.50;;;11.10;99.90;;;;;;5022744;28;20482;-82
2023/11/02 02:12:59;;;;;;;4.13;1.02;;;11.10;99.90;;;;;;5020473;28;20161;-82
2023/11/02 02:16:02;;;;;;;2.83;0.50;;;11.10;99.90;;;;;;5022832;28;20022;-82
2023/11/02 02:18:41;;;;;;;4.53;0.68;;;11.10;99.90;;;;;;5021128;28;20049;-82
2023/11/02 02:21:12;;;;;;;6.63;0.60;;;11.10;99.90;;;;;;5020285;28;20030;-82
2023/11/02 02:23:44;;;;;;;4.22;0.52;;;11.10;99.90;;;;;;5021702;28;20034;-82
2023/11/02 02:26:38;;;;;;;3.42;0.47;;;11.10;99.90;;;;;;5020648;28;20017;-82
2023/11/02 02:29:03;;;;;;;2.45;0.50;;;11.10;99.90;;;;;;5022339;28;20026;-82
2023/11/02 02:31:32;;;;;;;4.40;0.50;;;11.10;99.90;;;;;;5020989;28;20034;-82
2023/11/02 02:34:49;;;;;;;2.97;0.70;;;11.10;99.90;;;;;;5019755;28;20030;-82
2023/11/02 02:37:29;;;;;;;3.35;0.50;;;11.10;99.90;;;;;;4945768;29;20032;-83
2023/11/02 02:40:04;;;;;;;6.10;0.50;;;11.10;99.90;;;;;;5021455;28;20034;-83
2023/11/02 02:42:34;;;;;;;3.60;0.50;;;11.20;99.90;;;;;;5020343;28;20050;-83
2023/11/02 02:45:06;;;;;;;4.03;0.60;;;11.10;99.90;;;;;;5022691;28;20018;-83
2023/11/02 02:47:33;;;;;;;5.60;0.70;;;11.20;99.90;;;;;;5019429;28;20076;-82
2023/11/02 02:50:01;;;;;;;4.32;0.50;;;11.10;99.90;;;;;;5020881;28;20449;-81
2023/11/02 02:52:29;;;;;;;4.30;0.70;;;11.20;99.90;;;;;;5020622;28;20022;-84
2023/11/02 02:54:57;;;;;;;2.97;0.50;;;11.10;99.90;;;;;;5020427;28;20081;-84
2023/11/02 02:57:30;;;;;;;6.38;0.60;;;11.20;99.90;;;;;;5022451;28;20029;-83
2023/11/02 03:00:00;;;;;;;1.45;0.40;;;11.20;99.90;;;;;;5022264;28;20030;-84
2023/11/02 03:02:31;;;;;;;4.85;0.70;;;11.20;99.90;;;;;;5022220;28;20037;-84
2023/11/02 03:04:57;;;;;;;4.10;0.50;;;11.20;99.90;;;;;;5022085;28;20026;-84
2023/11/02 03:07:30;;;;;;;7.05;0.70;;;11.30;99.90;;;;;;5023097;28;20026;-84
2023/11/02 03:10:00;;;;;;;3.80;0.50;;;11.30;99.90;;;;;;5020825;28;20034;-83
2023/11/02 03:12:29;;;;;;;2.22;0.40;;;11.30;99.90;;;;;;5019826;28;20038;-82
2023/11/02 03:14:59;;;;;;;4.72;0.65;;;11.30;99.90;;;;;;5020343;28;20033;-83
2023/11/02 03:17:43;;;;;;;6.07;0.50;;;11.40;99.90;;;;;;5020163;28;20143;-82
2023/11/02 03:20:12;;;;;;;4.13;0.40;;;11.40;99.90;;;;;;5020572;28;20061;-82
2023/11/02 03:22:41;;;;;;;4.55;0.73;;;11.40;99.90;;;;;;5021950;28;20022;-82
2023/11/02 03:25:17;;;;;;;4.07;0.50;;;11.40;99.80;;;;;;5020027;28;20041;-82
2023/11/02 03:28:02;;;;;;;3.60;0.40;;;11.40;99.70;;;;;;5020854;28;20030;-82
2023/11/02 03:30:42;;;;;;;5.07;0.50;;;11.40;99.60;;;;;;5019594;28;20429;-82
2023/11/02 03:33:29;;;;;;;4.60;0.43;;;11.50;99.50;;;;;;5020079;28;20022;-83
2023/11/02 03:36:08;;;;;;;2.58;0.50;;;11.50;99.30;;;;;;5021009;28;20034;-82
2023/11/02 03:38:56;;;;;;;2.67;0.50;;;11.50;99.20;;;;;;5019570;28;20022;-82
2023/11/02 03:41:30;;;;;;;3.97;0.63;;;11.50;99.00;;;;;;5020330;28;20057;-82
2023/11/02 03:44:05;;;;;;;6.10;0.68;;;11.50;98.90;;;;;;5019646;28;20034;-82
2023/11/02 03:46:51;;;;;;;8.00;0.93;;;11.50;98.90;;;;;;5020768;28;20054;-83
2023/11/02 03:49:31;;;;;;;4.10;0.40;;;11.50;98.80;;;;;;5024517;28;20030;-83
2023/11/02 03:52:26;;;;;;;5.85;0.50;;;11.60;98.70;;;;;;5023300;28;20046;-83
2023/11/02 03:55:16;;;;;;;4.40;0.52;;;11.60;98.70;;;;;;5023552;28;20093;-82
2023/11/02 03:58:05;;;;;;;6.47;0.70;;;11.60;98.70;;;;;;5024559;28;20042;-82
2023/11/02 04:00:35;;;;;;;6.07;0.50;;;11.60;98.50;;;;;;5023202;28;20066;-82
2023/11/02 04:03:03;;;;;;;4.95;0.80;;;11.60;98.50;;;;;;5023852;28;20025;-82
2023/11/02 04:05:37;;;;;;;6.18;0.60;;;11.70;98.50;;;;;;5023891;28;20034;-83
2023/11/02 04:08:02;;;;;;;;;;;11.70;98.30;;;;;;5023492;28;20363;-83
2023/11/02 04:10:29;;;;;;;4.25;0.40;;;11.70;98.30;;;;;;5024271;28;19921;-83
2023/11/02 04:13:14;;;;;;;3.60;0.60;;;11.70;98.10;;;;;;5022108;28;20018;-83
2023/11/02 04:15:40;;;;;;;5.15;0.75;;;11.80;98.10;;;;;;5023833;28;20089;-82
2023/11/02 04:18:06;;;;;;;2.97;0.70;;;11.80;98.00;;;;;;5023334;28;20088;-82
2023/11/02 04:20:32;;;;;;;5.32;0.73;;;11.80;97.80;;;;;;5023384;28;20045;-82
2023/11/02 04:22:58;;;;;;;10.88;1.73;;;11.80;97.60;;;;;;5023946;28;20086;-82
2023/11/02 04:25:24;;;;;;;3.38;0.50;;;11.80;97.50;;;;;;5022619;28;20141;-83
2023/11/02 04:27:50;;;;;;;5.68;0.57;;;11.80;97.50;;;;;;5023344;28;20022;-83
2023/11/02 04:30:16;;;;;;;6.07;0.98;;;11.80;97.00;;;;;;5022723;28;20033;-83
2023/11/02 04:32:42;;;;;;;5.50;0.55;;;11.80;96.90;;;;;;5023142;28;20029;-83
2023/11/02 04:35:10;;;;;;;6.60;0.70;;;11.80;96.80;;;;;;5023058;28;20021;-83
2023/11/02 04:37:36;;;;;;;4.55;0.65;;;11.80;96.70;;;;;;5022891;28;20365;-84
2023/11/02 04:40:03;;;;;;;3.20;0.60;;;11.80;96.60;;;;;;5023486;28;20029;-84
2023/11/02 04:42:29;;;;;;;5.68;0.50;;;11.80;96.50;;;;;;5022082;28;20037;-83
2023/11/02 04:44:55;;;;;;;2.90;0.50;;;11.80;96.40;;;;;;5023169;28;20033;-84
2023/11/02 04:47:20;;;;;;;5.40;0.63;;;11.90;96.40;;;;;;5022311;28;20533;-83
2023/11/02 04:49:46;;;;;;;5.30;0.60;;;11.80;96.20;;;;;;5023071;28;20025;-83
2023/11/02 04:52:12;;;;;;;6.40;0.85;;;11.90;96.10;;;;;;5022341;28;20069;-82
2023/11/02 04:54:38;;;;;;;5.50;0.82;;;11.90;96.10;;;;;;5022799;28;20040;-82
2023/11/02 04:57:04;;;;;;;2.97;0.50;;;11.90;95.90;;;;;;5023384;28;20037;-82
2023/11/02 04:59:42;;;;;;;3.08;1.02;;;11.90;95.90;;;;;;5022381;28;20022;-83
2023/11/02 05:02:08;;;;;;;4.68;0.50;;;12.00;95.70;;;;;;5023161;28;20022;-83
2023/11/02 05:04:34;;;;;;;4.22;0.60;;;11.90;95.70;;;;;;5022039;28;20116;-83
2023/11/02 05:06:59;;;;;;;6.60;0.52;;;11.90;95.60;;;;;;5023359;28;21253;-84
2023/11/02 05:09:25;;;;;;;4.05;0.73;;;11.90;95.40;;;;;;5022262;28;20018;-83
2023/11/02 05:11:51;;;;;;;3.83;0.80;;;12.00;95.40;;;;;;5021366;28;20033;-83
2023/11/02 05:14:17;;;;;;;4.22;0.82;;;12.00;95.40;;;;;;5022285;28;20081;-82
2023/11/02 05:16:42;;;;;;;7.32;1.17;;;12.00;95.40;;;;;;5023035;28;20084;-82
2023/11/02 05:19:08;;;;;;;2.17;0.70;;;12.00;95.20;;;;;;5022684;28;20034;-82
2023/11/02 05:21:33;;;;;;;7.05;0.60;;;12.00;95.20;;;;;;5021710;28;20013;-82
2023/11/02 05:23:59;;;;;;;3.58;0.70;;;12.00;95.10;;;;;;5022564;28;20022;-83
2023/11/02 05:26:25;;;;;;;4.47;0.73;;;11.90;95.00;;;;;;5022886;28;20022;-83
2023/11/02 05:28:51;;;;;;;3.70;0.40;;;12.00;95.00;;;;;;5022071;28;20057;-83
2023/11/02 05:31:17;;;;;;;4.20;0.98;;;12.00;95.00;;;;;;5022203;28;20121;-84
2023/11/02 05:33:43;;;;;;;2.10;0.60;;;12.00;94.90;;;;;;5022893;28;20026;-83
2023/11/02 05:36:09;;;;;;;3.08;0.60;;;12.00;94.80;;;;;;5022561;28;20088;-83
2023/11/02 05:38:34;;;;;;;5.97;0.50;;;12.00;94.70;;;;;;5021267;28;20022;-84
2023/11/02 05:41:00;;;;;;;6.10;1.27;;;12.10;94.60;;;;;;5021866;28;20026;-83
2023/11/02 05:43:26;;;;;;;2.78;0.40;;;12.10;94.50;;;;;;5021359;28;20022;-82
2023/11/02 05:45:52;;;;;;;3.15;0.50;;;12.10;94.50;;;;;;5021678;28;20064;-82
2023/11/02 05:48:18;;;;;;;3.00;0.57;;;12.10;94.30;;;;;;5022173;28;20444;-82
2023/11/02 05:50:43;;;;;;;5.65;0.75;;;12.10;94.40;;;;;;5020736;28;20057;-83
2023/11/02 05:53:09;;;;;;;2.80;0.52;;;12.10;94.10;;;;;;5023835;28;20026;-82
2023/11/02 05:55:35;;;;;;;5.03;0.57;;;12.10;94.00;;;;;;5022075;28;20038;-83
2023/11/02 05:58:00;;;;;;;3.17;0.68;;;12.10;93.90;;;;;;5021900;28;20038;-83
2023/11/02 06:00:26;;;;;;;2.20;0.50;;;12.20;94.00;;;;;;5021105;28;20045;-83
2023/11/02 06:02:52;;;;;;;2.80;0.70;;;12.10;93.90;;;;;;5021867;28;20037;-83
2023/11/02 06:05:17;;;;;;;4.03;0.60;;;12.10;93.70;;;;;;5021494;28;20028;-83
2023/11/02 06:07:43;;;;;;;2.60;0.40;;;12.10;93.80;;;;;;5020886;28;20026;-82
2023/11/02 06:10:09;;;;;;;4.30;0.55;;;12.10;93.70;;;;;;5021069;28;20034;-81
2023/11/02 06:12:34;;;;;;;2.85;0.50;;;12.20;93.80;;;;;;5020789;28;20034;-80
2023/11/02 06:15:00;;;;;;;3.97;0.40;;;12.20;93.90;;;;;;5022766;28;20022;-81
2023/11/02 06:17:26;;;;;;;3.00;0.40;;;12.10;94.00;;;;;;5021842;28;20045;-80
2023/11/02 06:19:52;;;;;;;4.72;0.50;;;12.10;94.10;;;;;;5021192;28;20022;-80
2023/11/02 06:22:18;;;;;;;4.07;0.50;;;12.10;94.00;;;;;;5021012;28;20018;-80
2023/11/02 06:24:45;;;;;;;2.78;0.60;;;12.20;94.10;;;;;;5020458;28;20478;-81
2023/11/02 06:27:11;;;;;;;4.15;0.50;;;12.10;94.10;;;;;;5021416;28;20112;-81
2023/11/02 06:29:37;;;;;;;2.03;0.50;;;12.10;94.10;;;;;;5020703;28;20072;-81
2023/11/02 06:32:04;;;;;;;4.05;0.70;;;12.10;94.00;;;;;;5021997;28;20081;-81
2023/11/02 06:34:35;;;;;;;4.22;0.40;;;12.10;94.00;;;;;;5022302;28;20114;-81
2023/11/02 06:37:00;;;;;;;3.25;0.50;;;12.10;94.00;;;;;;5030594;28;20026;-81
2023/11/02 06:39:26;;;;;;;1.67;0.30;;;12.10;94.00;;;;;;5040261;28;20024;-81
2023/11/02 06:41:52;;;;;;;4.05;0.77;;;12.10;94.20;;;;;;5040372;28;20048;-79
2023/11/02 06:44:18;;;;;;;1.77;0.40;;;12.20;94.30;;;;;;5040428;28;20021;-79
2023/11/02 06:46:43;;;;;;;2.58;0.40;;;12.10;94.60;;;;;;5039721;28;20041;-79
2023/11/02 06:49:09;;;;;;;1.90;0.68;;;12.10;94.80;;;;;;5040608;28;20017;-79
2023/11/02 06:51:36;;;;;;;6.13;0.50;;;12.10;95.10;;;;;;5039780;28;20061;-80
2023/11/02 06:54:02;;;;;;;3.50;0.50;;;12.10;95.40;;;;;;5040371;28;20026;-80
2023/11/02 06:56:28;;;;;;;4.80;0.60;;;12.10;95.90;;;;;;5039358;28;20018;-79
2023/11/02 06:58:53;;;;;;;1.35;0.47;;;12.00;96.20;;;;;;5039576;28;20444;-79
2023/11/02 07:01:19;;;;;;;2.75;0.40;;;12.00;96.60;;;;;;5039138;28;20101;-79
2023/11/02 07:03:48;;;;;;;1.75;0.50;;;11.90;96.50;;;;;;5038119;28;20026;-80
2023/11/02 07:06:14;;;;;;;2.53;0.40;;;11.90;96.70;;;;;;5040437;28;20056;-79
2023/11/02 07:08:39;;;;;;;2.53;0.50;;;11.90;96.90;;;;;;5038468;28;20022;-80
2023/11/02 07:11:05;;;;;;;3.00;0.50;;;11.90;97.20;;;;;;5036848;28;20033;-79
2023/11/02 07:13:31;;;;;;;4.55;0.75;;;11.80;97.30;;;;;;5038964;28;20013;-80
2023/11/02 07:15:57;;;;;;;3.95;0.65;;;11.80;97.60;;;;;;5039456;28;20487;-80
2023/11/02 07:18:24;;;;;;;1.60;0.40;;;11.80;97.80;;;;;;5040661;28;20092;-79
2023/11/02 07:20:50;;;;;;;2.35;0.40;;;11.80;97.90;;;;;;5039914;28;20013;-80
2023/11/02 07:23:16;;;;;;;2.65;0.90;;;11.70;98.20;;;;;;5044038;28;20017;-80
2023/11/02 07:25:42;;;;;;;5.53;1.20;;;11.70;98.50;;;;;;5044277;28;20087;-80
2023/11/02 07:28:08;;;;;;;2.40;0.40;;;11.80;98.90;;;;;;5043828;28;20013;-80
2023/11/02 07:30:34;;;;;;;3.50;0.75;;;11.80;99.20;;;;;;5043232;28;20060;-80
2023/11/02 07:33:00;;;;;;;2.97;0.40;;;11.70;99.00;;;;;;5041239;28;20025;-80
2023/11/02 07:35:26;;;;;;;3.45;0.70;;;11.70;99.10;;;;;;5037181;28;20017;-80
2023/11/02 07:37:52;;;;;;;5.95;0.50;;;11.70;99.30;;;;;;5039166;28;20429;-80
2023/11/02 07:40:21;;;;;;;3.25;0.47;;;11.70;99.40;;;;;;5043578;28;20017;-80
2023/11/02 07:42:46;;;;;;;1.70;0.40;;;11.70;99.50;;;;;;5042931;28;20022;-80
2023/11/02 07:45:12;;;;;;;2.42;0.30;;;11.70;99.70;;;;;;5043372;28;20056;-80
2023/11/02 07:47:38;;;;;;;7.28;0.57;;;11.80;99.90;;;;;;5043169;28;20028;-80
2023/11/02 07:50:04;;;;;;;4.30;0.50;;;11.80;99.90;;;;;;5042839;28;20040;-80
2023/11/02 07:52:30;;;;;;;2.50;0.35;;;11.90;99.90;;;;;;5043001;28;20057;-80
2023/11/02 07:54:59;;;;;;;0.57;0.30;;;11.90;99.90;;;;;;5042831;28;20028;-80
2023/11/02 07:57:26;;;;;;;2.50;0.40;;;12.00;99.90;;;;;;5043985;28;20014;-80
2023/11/02 07:59:52;;;;;;;1.40;0.30;;;12.00;99.90;;;;;;5042584;28;20049;-80
2023/11/02 08:02:19;;;;;;;1.85;0.20;;;12.10;99.90;;;;;;5045218;28;20021;-80
2023/11/02 08:04:45;;;;;;;1.60;0.30;;;12.20;99.90;;;;;;5042512;28;20014;-80
2023/11/02 08:07:10;;;;;;;2.53;0.40;;;12.20;99.90;;;;;;5042893;28;20640;-80
2023/11/02 08:09:37;;;;;;;0.63;0.20;;;12.30;99.90;;;;;;5043463;28;20102;-80
2023/11/02 08:12:08;;;;;;;3.13;0.30;;;12.30;99.90;;;;;;5041215;28;20045;-80
2023/11/02 08:14:35;;;;;;;3.08;0.40;;;12.40;99.80;;;;;;5039834;28;20535;-79
2023/11/02 08:17:00;;;;;;;1.35;0.30;;;12.40;99.80;;;;;;5041236;28;20025;-80
2023/11/02 08:19:26;;;;;;;5.00;0.40;;;12.50;99.70;;;;;;5041173;28;20040;-80
2023/11/02 08:21:52;;;;;;;1.52;0.30;;;12.60;99.60;;;;;;5041475;28;20048;-80
2023/11/02 08:24:18;;;;;;;1.48;0.30;;;12.60;99.30;;;;;;5042461;28;20053;-80
2023/11/02 08:26:43;;;;;;;2.63;0.40;;;12.80;99.10;;;;;;5042533;28;20033;-80
2023/11/02 08:29:09;;;;;;;1.20;0.38;;;12.90;98.90;;;;;;5042883;28;20056;-80
2023/11/02 08:31:35;;;;;;;3.22;0.47;;;12.90;98.60;;;;;;5041614;28;20400;-80
2023/11/02 08:34:01;;;;;;;1.35;0.40;;;13.00;98.50;;;;;;5041964;28;20017;-80
2023/11/02 08:36:28;;;;;;;3.10;0.40;;;13.00;98.10;;;;;;5042471;28;20492;-80
2023/11/02 08:38:54;;;;;;;5.63;0.68;;;13.10;98.10;;;;;;5040966;28;20100;-79
2023/11/02 08:41:25;;;;;;;3.33;0.65;;;13.20;97.60;;;;;;5043019;28;20025;-80
2023/11/02 08:43:51;;;;;;;3.28;0.40;;;13.20;97.60;;;;;;5041493;28;20025;-79
2023/11/02 08:46:19;;;;;;;3.03;0.55;;;13.20;97.50;;;;;;5042583;28;20052;-80
2023/11/02 08:48:46;;;;;;;5.85;0.40;;;13.20;97.40;;;;;;5042703;28;20105;-80
2023/11/02 08:51:16;;;;;;;1.58;0.32;;;13.20;97.30;;;;;;5043014;28;20045;-80
2023/11/02 08:53:43;;;;;;;3.15;0.30;;;13.20;97.10;;;;;;5042122;28;20165;-80
2023/11/02 08:56:09;;;;;;;1.77;0.28;;;13.20;96.90;;;;;;5043158;28;20060;-79
2023/11/02 08:58:46;;;;;;;2.92;0.50;;;13.20;97.00;;;;;;5042404;28;20017;-80
2023/11/02 09:01:17;;;;;;;2.70;0.80;;;13.30;96.90;;;;;;5042420;28;20094;-79
2023/11/02 09:03:42;;;;;;;2.38;0.35;;;13.30;96.90;;;;;;5041151;28;20033;-80
2023/11/02 09:06:09;;;;;;;2.45;0.40;;;13.30;96.70;;;;;;5042893;28;20535;-80
2023/11/02 09:08:37;;;;;;;2.05;0.43;;;13.30;96.60;;;;;;5040994;28;20013;-80
2023/11/02 09:11:04;;;;;;;2.03;0.43;;;13.30;96.30;;;;;;5041541;28;20036;-80
2023/11/02 09:13:30;;;;;;;3.90;0.50;;;13.30;96.30;;;;;;5040482;28;20030;-79
2023/11/02 09:15:57;;;;;;;4.05;0.30;;;13.30;96.30;;;;;;5041804;28;20021;-80
2023/11/02 09:18:22;;;;;;;2.30;0.30;;;13.30;96.20;;;;;;5042153;28;20093;-80
2023/11/02 09:20:51;;;;;;;4.05;0.60;;;13.30;96.10;;;;;;5043084;28;20026;-79
2023/11/02 09:23:18;;;;;;;2.45;0.38;;;13.30;95.90;;;;;;5042330;28;20018;-80
2023/11/02 09:25:48;;;;;;;3.20;0.40;;;13.30;95.90;;;;;;5041139;28;20478;-80
2023/11/02 09:28:14;;;;;;;3.83;0.45;;;13.40;95.60;;;;;;5041821;28;20032;-80
2023/11/02 09:30:44;;;;;;;4.13;0.40;;;13.40;95.40;;;;;;5041618;28;20048;-80
2023/11/02 09:33:11;;;;;;;3.70;0.60;;;13.40;95.30;;;;;;5041185;28;20152;-80
2023/11/02 09:35:37;;;;;;;4.90;0.50;;;13.40;95.10;;;;;;5042150;28;20052;-80
2023/11/02 09:38:03;;;;;;;2.63;0.52;;;13.50;95.00;;;;;;5040968;28;20021;-80
2023/11/02 09:40:29;;;;;;;2.60;0.40;;;13.50;94.90;;;;;;5042208;28;20025;-80
2023/11/02 09:42:55;;;;;;;3.63;0.50;;;13.60;94.40;;;;;;5041009;28;20026;-80
2023/11/02 09:45:21;;;;;;;2.42;0.63;;;13.70;94.30;;;;;;5040195;28;20050;-80
2023/11/02 09:47:47;;;;;;;5.63;0.43;;;13.80;93.40;;;;;;5040135;28;20405;-80
2023/11/02 09:50:13;;;;;;;6.97;0.68;;;13.90;93.20;;;;;;5041105;28;20063;-80
2023/11/02 09:52:40;;;;;;;5.35;0.80;;;14.00;92.70;;;;;;5041805;28;20121;-80
2023/11/02 09:55:06;;;;;;;7.07;0.47;;;14.10;92.50;;;;;;5040561;28;20018;-80
2023/11/02 09:57:34;;;;;;;6.22;0.80;;;14.30;91.70;;;;;;5041660;28;20053;-80
2023/11/02 10:00:00;;;;;;;7.85;0.75;;;14.50;90.90;;;;;;5040424;28;20034;-80
2023/11/02 10:02:26;;;;;;;4.47;0.50;;;14.90;90.90;;;;;;5042553;28;20113;-80
2023/11/02 10:04:51;;;;;;;4.88;0.60;;;15.60;90.60;;;;;;5042817;28;20041;-80
2023/11/02 10:07:20;;;;;;;3.72;0.68;;;16.30;86.10;;;;;;5041959;28;20024;-80
2023/11/02 10:09:48;;;;;;;2.72;0.45;;;16.60;84.30;;;;;;5041781;28;20030;-79
2023/11/02 10:12:14;;;;;;;5.78;0.60;;;16.70;80.30;;;;;;5041203;28;20018;-80
2023/11/02 10:14:40;;;;;;;7.57;0.52;;;16.70;77.70;;;;;;5041887;28;20409;-80
2023/11/02 10:17:06;;;;;;;4.78;0.80;;;16.70;77.30;;;;;;5039755;28;20493;-80
2023/11/02 10:19:32;;;;;;;3.47;0.70;;;16.90;77.40;;;;;;5041179;28;20028;-80
2023/11/02 10:21:59;;;;;;;9.57;0.52;;;17.10;77.40;;;;;;5040197;28;20093;-80
2023/11/02 10:24:42;;;;;;;4.25;0.60;;;17.20;76.10;;;;;;5040866;28;20021;-80
2023/11/02 10:27:10;;;;;;;3.00;0.60;;;17.30;72.90;;;;;;5041093;28;20028;-80
2023/11/02 10:29:36;;;;;;;5.63;0.60;;;17.30;71.90;;;;;;5039888;28;20040;-80
2023/11/02 10:32:03;;;;;;;5.53;0.65;;;17.30;70.80;;;;;;5040821;28;20088;-80
2023/11/02 10:34:29;;;;;;;5.53;0.73;;;17.30;71.40;;;;;;5040275;28;20021;-80
2023/11/02 10:36:56;;;;;;;5.78;0.63;;;17.30;70.70;;;;;;5040175;28;20358;-81
2023/11/02 10:39:23;;;;;;;3.95;0.63;;;17.30;70.60;;;;;;5040752;28;20105;-80
2023/11/02 10:42:04;;;;;;;6.65;0.88;;;17.30;69.80;;;;;;5040380;28;20116;-80
2023/11/02 10:44:36;;;;;;;3.47;0.50;;;17.20;68.90;;;;;;5040703;28;20045;-80
2023/11/02 10:47:03;;;;;;;9.00;0.88;;;17.00;69.00;;;;;;5039543;28;20056;-80
2023/11/02 10:49:35;;;;;;;3.53;0.50;;;16.80;67.90;;;;;;5040947;28;20025;-79
2023/11/02 10:52:08;;;;;;;6.63;0.70;;;16.60;67.60;;;;;;5039863;28;20053;-80
2023/11/02 10:54:48;;;;;;;6.20;0.80;;;16.50;68.60;;;;;;5040128;28;20025;-80
2023/11/02 10:57:16;;;;;;;8.02;0.70;;;16.50;69.60;;;;;;5042482;28;20068;-80
2023/11/02 10:59:43;;;;;;;8.18;0.73;;;16.60;68.70;;;;;;5039162;28;20672;-80
2023/11/02 11:02:11;;;;;;;9.00;1.17;;;16.60;68.00;;;;;;5038084;28;20049;-80
2023/11/02 11:04:41;;;;;;;3.83;0.57;;;16.50;68.10;;;;;;5039322;28;20017;-80
2023/11/02 11:07:11;;;;;;;6.57;0.60;;;16.60;69.30;;;;;;5040104;28;20026;-80
2023/11/02 11:09:39;;;;;;;7.68;0.82;;;16.90;68.00;;;;;;5041374;28;20064;-80
2023/11/02 11:12:06;;;;;;;6.68;0.95;;;17.10;67.10;;;;;;5039374;28;20067;-80
2023/11/02 11:14:34;;;;;;;5.00;0.90;;;17.20;67.30;;;;;;5041214;28;20021;-80
2023/11/02 11:17:00;;;;;;;7.65;1.15;;;17.30;65.10;;;;;;5039241;28;20022;-80
2023/11/02 11:19:31;;;;;;;6.43;0.80;;;17.30;64.60;;;;;;5040507;28;20032;-80
2023/11/02 11:22:00;;;;;;;7.13;0.70;;;17.50;65.60;;;;;;5039458;28;20037;-80
2023/11/02 11:24:33;;;;;;;7.65;1.00;;;17.70;65.70;;;;;;5037624;28;20049;-80
2023/11/02 11:27:00;;;;;;;5.18;0.90;;;17.90;64.10;;;;;;5032010;28;20021;-80
2023/11/02 11:29:41;;;;;;;4.97;0.75;;;18.00;63.60;;;;;;5029806;28;20564;-80
2023/11/02 11:32:29;;;;;;;7.93;1.10;;;18.00;62.10;;;;;;5052434;28;20041;-79
2023/11/02 11:35:03;;;;;;;4.88;0.73;;;17.90;62.10;;;;;;5038161;28;20618;-79
2023/11/02 11:40:21;;;;;;;7.32;0.80;;;18.30;61.80;;;;;;5038585;28;20080;-79
2023/11/02 11:45:51;;;;;;;3.50;0.77;;;18.70;60.70;;;;;;5030150;28;20068;-79
2023/11/02 11:48:42;;;;;;;8.27;1.33;;;18.70;61.20;;;;;;5040191;28;20029;-79
2023/11/02 11:51:39;;;;;;;6.32;0.80;;;18.80;59.30;;;;;;5038810;28;20038;-79
2023/11/02 11:54:10;;;;;;;3.85;0.70;;;18.70;59.40;;;;;;5040892;28;20112;-79
2023/11/02 11:56:36;;;;;;;7.50;0.90;;;18.80;60.40;;;;;;5036157;28;20076;-79
2023/11/02 11:59:02;;;;;;;6.40;0.75;;;18.80;58.90;;;;;;5027408;28;20018;-79
2023/11/02 12:01:27;;;;;;;4.65;0.80;;;18.50;58.10;;;;;;5020573;28;20378;-79
2023/11/02 12:03:53;;;;;;;3.35;0.65;;;18.10;59.30;;;;;;5021328;28;20469;-79
2023/11/02 12:06:42;;;;;;;4.32;0.85;;;17.80;60.50;;;;;;5029303;28;20076;-79
2023/11/02 12:09:10;;;;;;;5.65;0.60;;;17.40;62.60;;;;;;5033376;28;20029;-79
2023/11/02 12:11:36;;;;;;;6.00;0.70;;;17.20;71.60;;;;;;5042622;28;20042;-79
2023/11/02 12:14:18;;;;;;;4.53;0.75;;;17.10;73.70;;;;;;5042360;28;20064;-79
2023/11/02 12:16:46;;;;;;;4.95;0.65;;;16.90;74.10;;;;;;5039960;28;20018;-81
2023/11/02 12:19:12;;;;;;;8.55;0.82;;;17.20;75.30;;;;;;5042744;28;20036;-80
2023/11/02 12:21:40;;;;;;;9.38;1.05;;;17.40;71.20;;;;;;5042364;28;20491;-81
2023/11/02 12:24:12;;;;;;;8.80;1.55;;;17.70;70.50;;;;;;5042616;28;20014;-80
2023/11/02 12:26:40;;;;;;;6.57;1.00;;;18.20;68.70;;;;;;5042299;28;20041;-78
2023/11/02 12:29:10;;;;;;;4.05;0.88;;;18.70;66.00;;;;;;5042588;28;20066;-79
2023/11/02 12:31:44;;;;;;;10.75;0.98;;;18.90;64.80;;;;;;5045233;28;20051;-81
2023/11/02 12:34:13;;;;;;;8.38;1.02;;;19.10;63.90;;;;;;5042423;28;20022;-81
2023/11/02 12:36:40;;;;;;;3.20;0.60;;;19.30;62.80;;;;;;5045027;28;20017;-81
2023/11/02 12:39:13;;;;;;;7.32;1.20;;;19.20;61.00;;;;;;5043592;28;20077;-81
2023/11/02 12:41:40;;;;;;;10.88;1.20;;;18.90;60.10;;;;;;5042420;28;20069;-80
2023/11/02 12:44:14;;;;;;;7.90;1.00;;;18.50;60.20;;;;;;5043341;28;20048;-81
2023/11/02 12:46:44;;;;;;;3.45;0.70;;;18.10;60.90;;;;;;5041117;28;20041;-80
2023/11/02 12:49:19;;;;;;;6.18;0.82;;;17.80;61.70;;;;;;5040763;28;20053;-80
2023/11/02 12:51:57;;;;;;;7.97;0.80;;;17.50;60.20;;;;;;5023871;28;20041;-80
2023/11/02 12:54:26;;;;;;;4.45;0.50;;;17.20;60.00;;;;;;5040577;28;20038;-81
2023/11/02 12:56:54;;;;;;;5.82;1.33;;;16.90;61.10;;;;;;5042709;28;20025;-80
2023/11/02 12:59:24;;;;;;;4.95;0.70;;;16.80;61.00;;;;;;5041741;28;20052;-81
2023/11/02 13:01:54;;;;;;;10.73;1.20;;;16.70;60.80;;;;;;5042292;28;20033;-81
2023/11/02 13:04:23;;;;;;;6.03;0.60;;;16.70;60.70;;;;;;5041488;28;20051;-81
2023/11/02 13:06:50;;;;;;;7.38;0.60;;;16.70;60.30;;;;;;5041966;28;20022;-80
2023/11/02 13:09:17;;;;;;;4.53;0.70;;;16.60;61.40;;;;;;5036652;28;20038;-80